createdAt,value
2018-12-31T00:05:01.082Z,4.90
2018-12-31T00:07:42.838Z,5.33
2018-12-31T00:10:24.550Z,4.77
2018-12-31T00:13:06.689Z,4.90
2018-12-31T00:15:48.822Z,4.43
2018-12-31T00:18:31.028Z,4.90
2018-12-31T00:21:12.670Z,4.70
2018-12-31T00:23:54.631Z,4.63
2018-12-31T00:26:35.055Z,4.23
2018-12-31T00:29:24.403Z,2.93
2018-12-31T00:32:08.349Z,3.50
2018-12-31T00:34:50.577Z,3.90
2018-12-31T00:37:32.442Z,3.73
2018-12-31T00:40:18.739Z,3.23
2018-12-31T00:42:59.220Z,3.90
2018-12-31T00:45:41.381Z,3.40
2018-12-31T00:48:23.371Z,3.30
2018-12-31T00:51:05.455Z,3.33
2018-12-31T00:53:47.404Z,4.00
2018-12-31T00:56:29.345Z,4.10
2018-12-31T00:59:11.406Z,3.73
2018-12-31T01:01:53.126Z,3.73
2018-12-31T01:04:35.010Z,3.47
2018-12-31T01:07:16.860Z,3.40
2018-12-31T01:09:58.992Z,3.40
2018-12-31T01:12:41.350Z,2.07
2018-12-31T01:15:23.834Z,2.00
2018-12-31T01:18:05.698Z,1.50
2018-12-31T01:20:47.990Z,1.17
2018-12-31T01:23:30.158Z,1.50
2018-12-31T01:26:11.799Z,2.00
2018-12-31T01:28:54.071Z,1.53
2018-12-31T01:31:36.091Z,1.80
2018-12-31T01:34:18.251Z,1.80
2018-12-31T01:37:00.122Z,1.30
2018-12-31T01:39:42.201Z,1.20
2018-12-31T01:42:24.093Z,0.90
2018-12-31T01:45:05.954Z,1.03
2018-12-31T01:47:48.186Z,1.20
2018-12-31T01:50:29.879Z,1.07
2018-12-31T01:53:11.550Z,0.60
2018-12-31T01:55:53.307Z,0.70
2018-12-31T01:58:35.423Z,1.10
2018-12-31T02:01:17.459Z,0.73
2018-12-31T02:03:59.695Z,0.50
2018-12-31T02:06:41.790Z,0.90
2018-12-31T02:09:23.926Z,0.87
2018-12-31T02:12:06.275Z,1.20
2018-12-31T02:14:47.959Z,0.80
2018-12-31T02:17:18.330Z,0.43
2018-12-31T02:20:09.138Z,2.00
2018-12-31T02:22:52.658Z,1.70
2018-12-31T02:25:34.562Z,1.60
2018-12-31T02:28:16.623Z,1.53
2018-12-31T02:30:58.260Z,1.50
2018-12-31T02:33:39.967Z,1.20
2018-12-31T02:36:22.059Z,0.53
2018-12-31T02:39:04.704Z,0.60
2018-12-31T02:41:46.393Z,1.37
2018-12-31T02:44:28.032Z,1.10
2018-12-31T02:47:09.806Z,0.97
2018-12-31T02:49:52.338Z,0.80
2018-12-31T02:52:34.509Z,1.10
2018-12-31T02:55:16.475Z,1.20
2018-12-31T02:57:58.475Z,1.20
2018-12-31T03:00:40.679Z,1.03
2018-12-31T03:03:22.546Z,1.20
2018-12-31T03:06:05.050Z,1.00
2018-12-31T03:08:47.043Z,1.37
2018-12-31T03:11:29.168Z,1.20
2018-12-31T03:14:11.109Z,1.60
2018-12-31T03:16:53.470Z,1.07
2018-12-31T03:19:35.706Z,1.10
2018-12-31T03:22:17.879Z,0.77
2018-12-31T03:24:59.831Z,0.40
2018-12-31T03:27:41.678Z,0.10
2018-12-31T03:30:23.716Z,0.30
2018-12-31T03:33:05.461Z,0.40
2018-12-31T03:35:47.710Z,0.60
2018-12-31T03:38:29.508Z,0.70
2018-12-31T03:41:11.667Z,0.67
2018-12-31T03:43:53.558Z,0.90
2018-12-31T03:46:34.110Z,0.40
2018-12-31T03:52:05.664Z,1.10
2018-12-31T03:54:49.469Z,0.50
2018-12-31T03:57:31.534Z,0.40
2018-12-31T04:00:13.466Z,0.43
2018-12-31T04:02:56.154Z,0.20
2018-12-31T04:05:38.355Z,0.10
2018-12-31T04:08:20.330Z,1.30
2018-12-31T04:11:02.574Z,2.10
2018-12-31T04:13:32.930Z,0.50
2018-12-31T04:16:23.734Z,0.00
2018-12-31T04:19:07.532Z,0.40
2018-12-31T04:21:49.194Z,0.30
2018-12-31T04:24:31.848Z,0.20
2018-12-31T04:27:14.239Z,0.40
2018-12-31T04:29:56.359Z,0.40
2018-12-31T04:32:26.706Z,0.33
2018-12-31T04:35:16.123Z,0.33
2018-12-31T04:37:59.629Z,0.30
2018-12-31T04:40:41.308Z,0.50
2018-12-31T04:43:23.058Z,0.23
2018-12-31T04:46:04.833Z,0.27
2018-12-31T04:48:47.204Z,0.17
2018-12-31T04:51:29.322Z,0.93
2018-12-31T04:54:11.011Z,0.37
2018-12-31T04:56:52.735Z,1.30
2018-12-31T04:59:34.620Z,2.30
2018-12-31T05:02:16.610Z,3.27
2018-12-31T05:04:59.166Z,2.00
2018-12-31T05:07:41.326Z,2.20
2018-12-31T05:10:23.867Z,1.90
2018-12-31T05:13:05.882Z,1.40
2018-12-31T05:15:47.582Z,1.80
2018-12-31T05:18:30.108Z,2.00
2018-12-31T05:21:11.882Z,2.17
2018-12-31T05:23:53.855Z,1.30
2018-12-31T05:26:35.462Z,1.40
2018-12-31T05:29:17.514Z,1.63
2018-12-31T05:31:59.540Z,2.00
2018-12-31T05:34:41.192Z,2.33
2018-12-31T05:37:25.211Z,2.60
2018-12-31T05:40:07.046Z,2.60
2018-12-31T05:42:49.486Z,2.30
2018-12-31T05:45:29.935Z,3.00
2018-12-31T05:48:19.355Z,2.10
2018-12-31T05:51:01.441Z,2.30
2018-12-31T05:53:43.612Z,2.30
2018-12-31T05:56:25.395Z,14.50
2018-12-31T05:59:07.097Z,5.20
2018-12-31T06:01:49.092Z,5.23
2018-12-31T06:04:30.983Z,4.20
2018-12-31T06:07:12.925Z,3.30
2018-12-31T06:09:55.342Z,4.27
2018-12-31T06:12:37.019Z,9.23
2018-12-31T06:15:26.388Z,12.70
2018-12-31T06:18:15.815Z,1.80
2018-12-31T06:20:59.506Z,1.70
2018-12-31T06:23:41.326Z,2.53
2018-12-31T06:26:23.330Z,2.70
2018-12-31T06:29:05.331Z,3.00
2018-12-31T06:31:47.226Z,3.00
2018-12-31T06:34:27.784Z,3.47
2018-12-31T06:37:17.198Z,3.20
2018-12-31T06:40:00.454Z,3.00
2018-12-31T06:42:42.170Z,3.43
2018-12-31T06:45:24.083Z,2.93
2018-12-31T06:48:05.961Z,3.10
2018-12-31T06:50:47.962Z,3.67
2018-12-31T06:53:30.041Z,4.53
2018-12-31T06:56:11.890Z,5.17
2018-12-31T06:58:55.666Z,26.43
2018-12-31T07:01:37.391Z,5.13
2018-12-31T07:04:19.403Z,4.20
2018-12-31T07:07:01.858Z,4.23
2018-12-31T07:09:43.703Z,3.40
2018-12-31T07:12:26.354Z,3.37
2018-12-31T07:14:56.641Z,3.50
2018-12-31T07:17:47.431Z,4.90
2018-12-31T07:23:27.537Z,5.30
2018-12-31T07:26:11.636Z,5.47
2018-12-31T07:28:53.559Z,8.43
2018-12-31T07:31:35.611Z,10.57
2018-12-31T07:34:17.826Z,10.37
2018-12-31T07:36:59.977Z,10.27
2018-12-31T07:39:42.511Z,9.97
2018-12-31T07:42:24.370Z,12.47
2018-12-31T07:45:06.134Z,12.83
2018-12-31T07:47:47.850Z,11.43
2018-12-31T07:50:29.551Z,14.20
2018-12-31T07:53:11.686Z,15.47
2018-12-31T07:55:42.083Z,16.63
2018-12-31T07:58:32.986Z,14.83
2018-12-31T08:01:16.693Z,14.70
2018-12-31T08:03:58.866Z,17.83
2018-12-31T08:06:40.442Z,16.37
2018-12-31T08:09:22.651Z,19.23
2018-12-31T08:12:04.354Z,17.97
2018-12-31T08:14:46.478Z,15.20
2018-12-31T08:17:28.371Z,15.20
2018-12-31T08:19:58.733Z,15.73
2018-12-31T08:22:49.610Z,14.60
2018-12-31T08:25:31.874Z,15.33
2018-12-31T08:28:13.874Z,17.87
2018-12-31T08:30:56.355Z,17.73
2018-12-31T08:33:38.301Z,18.73
2018-12-31T08:36:21.788Z,37.10
2018-12-31T08:39:04.654Z,25.63
2018-12-31T08:41:46.282Z,23.67
2018-12-31T08:44:28.688Z,21.17
2018-12-31T08:47:10.947Z,16.23
2018-12-31T08:49:52.947Z,16.13
2018-12-31T08:52:35.000Z,22.40
2018-12-31T08:55:16.814Z,52.70
2018-12-31T08:57:58.435Z,42.37
2018-12-31T09:00:40.479Z,33.07
2018-12-31T09:03:22.298Z,137.03
2018-12-31T09:06:04.306Z,82.53
2018-12-31T09:08:46.696Z,32.73
2018-12-31T09:11:28.839Z,18.97
2018-12-31T09:14:10.839Z,19.10
2018-12-31T09:16:53.093Z,15.57
2018-12-31T09:19:35.586Z,19.00
2018-12-31T09:22:17.650Z,30.40
2018-12-31T09:24:59.490Z,26.33
2018-12-31T09:27:41.611Z,27.33
2018-12-31T09:30:23.920Z,23.43
2018-12-31T09:33:06.081Z,18.43
2018-12-31T09:35:47.768Z,24.67
2018-12-31T09:38:29.694Z,53.73
2018-12-31T09:41:11.606Z,37.80
2018-12-31T09:43:53.627Z,31.60
2018-12-31T09:46:35.706Z,31.30
2018-12-31T09:49:17.610Z,20.10
2018-12-31T09:51:59.790Z,19.00
2018-12-31T09:54:42.091Z,24.60
2018-12-31T09:57:23.966Z,23.47
2018-12-31T10:00:05.766Z,22.80
2018-12-31T10:02:48.108Z,24.90
2018-12-31T10:05:30.438Z,27.10
2018-12-31T10:08:12.710Z,30.73
2018-12-31T10:10:54.712Z,29.57
2018-12-31T10:13:36.851Z,31.87
2018-12-31T10:16:19.027Z,43.10
2018-12-31T10:19:00.653Z,22.33
2018-12-31T10:21:43.114Z,32.97
2018-12-31T10:24:25.071Z,21.10
2018-12-31T10:27:07.379Z,17.43
2018-12-31T10:29:49.531Z,13.10
2018-12-31T10:32:31.601Z,15.20
2018-12-31T10:35:13.520Z,14.37
2018-12-31T10:37:55.570Z,16.47
2018-12-31T10:40:37.784Z,17.13
2018-12-31T10:43:19.782Z,15.40
2018-12-31T10:46:01.799Z,12.30
2018-12-31T10:48:43.836Z,10.83
2018-12-31T10:51:25.957Z,7.67
2018-12-31T10:54:08.064Z,8.60
2018-12-31T10:56:50.082Z,6.13
2018-12-31T10:59:20.350Z,6.07
2018-12-31T11:02:11.138Z,5.90
2018-12-31T11:04:54.490Z,4.97
2018-12-31T11:07:36.627Z,4.10
2018-12-31T11:10:19.279Z,4.33
2018-12-31T11:13:02.247Z,4.20
2018-12-31T11:15:42.674Z,3.43
2018-12-31T11:18:31.998Z,4.27
2018-12-31T11:21:14.131Z,3.83
2018-12-31T11:24:03.530Z,3.87
2018-12-31T11:26:47.319Z,4.10
2018-12-31T11:29:29.626Z,4.07
2018-12-31T11:32:11.798Z,6.90
2018-12-31T11:34:53.915Z,13.07
2018-12-31T11:37:35.922Z,11.00
2018-12-31T11:40:17.607Z,2.40
2018-12-31T11:42:59.205Z,6.73
2018-12-31T11:45:41.205Z,23.97
2018-12-31T11:48:22.954Z,2.73
2018-12-31T11:51:04.723Z,17.20
2018-12-31T11:53:47.034Z,4.47
2018-12-31T11:56:28.731Z,2.53
2018-12-31T11:59:10.690Z,1.73
2018-12-31T12:01:52.370Z,2.37
2018-12-31T12:04:34.951Z,3.10
2018-12-31T12:07:17.131Z,3.00
2018-12-31T12:09:59.597Z,2.90
2018-12-31T12:12:41.638Z,3.27
2018-12-31T12:15:23.394Z,3.23
2018-12-31T12:18:05.237Z,2.63
2018-12-31T12:20:47.426Z,8.67
2018-12-31T12:23:27.919Z,3.53
2018-12-31T12:26:17.469Z,3.60
2018-12-31T12:29:00.887Z,1.83
2018-12-31T12:31:42.758Z,1.07
2018-12-31T12:34:24.809Z,1.10
2018-12-31T12:37:06.586Z,1.03
2018-12-31T12:39:48.276Z,0.87
2018-12-31T12:42:30.027Z,0.80
2018-12-31T12:45:12.578Z,0.90
2018-12-31T12:47:54.579Z,0.70
2018-12-31T12:50:37.122Z,2.80
2018-12-31T12:53:18.915Z,5.43
2018-12-31T12:56:00.849Z,4.23
2018-12-31T12:58:42.643Z,1.63
2018-12-31T13:01:24.822Z,1.37
2018-12-31T13:04:06.751Z,1.30
2018-12-31T13:06:48.426Z,1.00
2018-12-31T13:09:30.230Z,1.50
2018-12-31T13:12:12.690Z,1.80
2018-12-31T13:14:54.514Z,2.40
2018-12-31T13:17:36.911Z,1.93
2018-12-31T13:20:19.730Z,2.17
2018-12-31T13:23:01.832Z,2.10
2018-12-31T13:25:43.567Z,1.63
2018-12-31T13:28:25.259Z,1.03
2018-12-31T13:31:08.169Z,1.00
2018-12-31T13:33:48.898Z,1.20
2018-12-31T13:36:38.305Z,0.90
2018-12-31T13:39:21.731Z,1.00
2018-12-31T13:42:03.711Z,1.03
2018-12-31T13:44:47.082Z,1.20
2018-12-31T13:47:29.154Z,1.10
2018-12-31T13:50:11.330Z,0.80
2018-12-31T13:52:53.394Z,1.07
2018-12-31T13:55:35.550Z,0.80
2018-12-31T13:58:17.950Z,0.90
2018-12-31T14:00:59.638Z,0.80
2018-12-31T14:03:41.595Z,1.30
2018-12-31T14:06:23.604Z,0.90
2018-12-31T14:09:05.541Z,0.80
2018-12-31T14:11:47.395Z,0.97
2018-12-31T14:14:29.429Z,0.60
2018-12-31T14:17:11.258Z,1.20
2018-12-31T14:19:53.438Z,1.10
2018-12-31T14:22:35.703Z,1.10
2018-12-31T14:25:17.746Z,1.17
2018-12-31T14:28:00.230Z,3.17
2018-12-31T14:30:41.870Z,2.57
2018-12-31T14:33:23.669Z,1.60
2018-12-31T14:36:05.402Z,0.93
2018-12-31T14:38:47.409Z,1.10
2018-12-31T14:41:30.194Z,1.30
2018-12-31T14:44:12.146Z,1.63
2018-12-31T14:46:52.658Z,1.90
2018-12-31T14:49:34.894Z,1.50
2018-12-31T14:52:16.914Z,1.40
2018-12-31T14:54:57.610Z,1.70
2018-12-31T14:57:47.012Z,1.40
2018-12-31T15:00:30.806Z,1.80
2018-12-31T15:03:12.690Z,6.23
2018-12-31T15:05:54.605Z,19.77
2018-12-31T15:08:36.730Z,7.33
2018-12-31T15:11:19.050Z,33.20
2018-12-31T15:14:00.883Z,17.60
2018-12-31T15:16:42.882Z,3.73
2018-12-31T15:19:24.795Z,2.70
2018-12-31T15:22:07.234Z,4.37
2018-12-31T15:24:49.026Z,4.53
2018-12-31T15:27:30.998Z,5.03
2018-12-31T15:30:13.434Z,3.40
2018-12-31T15:32:55.734Z,4.37
2018-12-31T15:35:38.352Z,4.00
2018-12-31T15:38:20.470Z,4.70
2018-12-31T15:41:03.519Z,5.30
2018-12-31T15:43:45.190Z,6.57
2018-12-31T15:46:27.674Z,6.80
2018-12-31T15:49:09.527Z,6.63
2018-12-31T15:51:52.010Z,7.37
2018-12-31T15:54:34.218Z,7.77
2018-12-31T15:57:16.311Z,6.23
2018-12-31T15:59:58.335Z,4.87
2018-12-31T16:02:40.586Z,7.47
2018-12-31T16:05:22.370Z,58.27
2018-12-31T16:08:04.174Z,121.83
2018-12-31T16:10:46.643Z,75.57
2018-12-31T16:13:29.078Z,58.40
2018-12-31T16:16:10.931Z,19.83
2018-12-31T16:18:53.329Z,7.70
2018-12-31T16:21:35.683Z,7.23
2018-12-31T16:24:18.606Z,8.60
2018-12-31T16:27:00.450Z,5.47
2018-12-31T16:29:42.536Z,6.07
2018-12-31T16:32:25.161Z,9.10
2018-12-31T16:35:07.761Z,36.53
2018-12-31T16:37:49.997Z,101.50
2018-12-31T16:40:32.098Z,51.33
2018-12-31T16:43:14.602Z,29.03
2018-12-31T16:45:56.510Z,26.37
2018-12-31T16:48:38.735Z,29.10
2018-12-31T16:51:20.783Z,36.17
2018-12-31T16:54:02.758Z,38.73
2018-12-31T16:56:45.266Z,31.27
2018-12-31T16:59:27.053Z,24.10
2018-12-31T17:02:09.043Z,16.30
2018-12-31T17:04:51.012Z,28.47
2018-12-31T17:07:32.935Z,94.63
2018-12-31T17:10:15.118Z,51.57
2018-12-31T17:12:56.938Z,29.33
2018-12-31T17:15:38.755Z,107.93
2018-12-31T17:18:20.462Z,116.13
2018-12-31T17:21:03.016Z,46.87
2018-12-31T17:23:45.346Z,17.37
2018-12-31T17:26:27.574Z,18.70
2018-12-31T17:29:09.594Z,22.90
2018-12-31T17:31:51.949Z,22.80
2018-12-31T17:34:34.758Z,20.93
2018-12-31T17:37:17.206Z,28.87
2018-12-31T17:39:59.670Z,22.13
2018-12-31T17:42:41.814Z,20.63
2018-12-31T17:45:23.827Z,24.53
2018-12-31T17:48:05.906Z,27.70
2018-12-31T17:50:48.399Z,23.80
2018-12-31T17:53:30.499Z,21.97
2018-12-31T17:56:12.589Z,18.40
2018-12-31T17:58:54.538Z,21.63
2018-12-31T18:01:36.399Z,30.43
2018-12-31T18:04:18.743Z,22.77
2018-12-31T18:07:01.206Z,17.60
2018-12-31T18:09:44.030Z,115.37
2018-12-31T18:12:26.354Z,196.53
2018-12-31T18:15:09.111Z,45.33
2018-12-31T18:17:51.550Z,48.87
2018-12-31T18:20:33.470Z,89.53
2018-12-31T18:23:15.222Z,107.47
2018-12-31T18:25:57.142Z,58.80
2018-12-31T18:28:39.515Z,33.77
2018-12-31T18:31:21.513Z,34.93
2018-12-31T18:34:04.022Z,21.33
2018-12-31T18:36:46.074Z,21.77
2018-12-31T18:39:28.098Z,25.90
2018-12-31T18:42:10.876Z,33.70
2018-12-31T18:44:53.090Z,49.17
2018-12-31T18:47:35.148Z,41.23
2018-12-31T18:50:16.774Z,47.40
2018-12-31T18:52:58.762Z,21.10
2018-12-31T18:55:41.097Z,46.13
2018-12-31T18:58:24.200Z,44.37
2018-12-31T19:01:06.371Z,64.30
2018-12-31T19:03:48.562Z,24.13
2018-12-31T19:06:31.226Z,17.47
2018-12-31T19:09:13.827Z,17.40
2018-12-31T19:11:55.734Z,18.57
2018-12-31T19:14:37.853Z,17.50
2018-12-31T19:17:20.376Z,25.70
2018-12-31T19:20:02.134Z,26.07
2018-12-31T19:22:44.830Z,35.17
2018-12-31T19:25:26.890Z,19.07
2018-12-31T19:28:09.378Z,19.80
2018-12-31T19:30:52.009Z,22.93
2018-12-31T19:33:33.863Z,21.87
2018-12-31T19:36:15.712Z,19.73
2018-12-31T19:38:57.877Z,35.27
2018-12-31T19:41:39.758Z,26.60
2018-12-31T19:44:21.995Z,35.60
2018-12-31T19:47:03.904Z,25.47
2018-12-31T19:49:45.706Z,28.67
2018-12-31T19:52:27.604Z,29.10
2018-12-31T19:55:09.705Z,26.90
2018-12-31T19:57:51.654Z,27.63
2018-12-31T20:00:34.247Z,26.23
2018-12-31T20:03:16.635Z,23.03
2018-12-31T20:05:59.339Z,26.67
2018-12-31T20:08:41.972Z,26.10
2018-12-31T20:11:24.135Z,26.40
2018-12-31T20:14:06.307Z,33.33
2018-12-31T20:16:48.233Z,37.27
2018-12-31T20:19:30.376Z,27.63
2018-12-31T20:22:12.358Z,25.30
2018-12-31T20:24:54.127Z,22.47
2018-12-31T20:27:36.002Z,19.63
2018-12-31T20:30:18.210Z,20.47
2018-12-31T20:33:00.279Z,17.93
2018-12-31T20:35:42.194Z,20.07
2018-12-31T20:38:24.062Z,20.83
2018-12-31T20:41:06.454Z,22.97
2018-12-31T20:43:48.450Z,26.40
2018-12-31T20:46:30.346Z,26.43
2018-12-31T20:49:12.185Z,34.77
2018-12-31T20:51:54.163Z,18.23
2018-12-31T20:54:36.107Z,18.70
2018-12-31T20:57:18.939Z,19.27
2018-12-31T21:00:01.006Z,23.30
2018-12-31T21:02:42.825Z,23.07
2018-12-31T21:05:24.990Z,22.70
2018-12-31T21:08:05.478Z,23.97
2018-12-31T21:13:55.524Z,22.77
2018-12-31T21:16:39.234Z,22.70
2018-12-31T21:19:21.231Z,23.03
2018-12-31T21:22:04.211Z,27.20
2018-12-31T21:24:45.935Z,28.53
2018-12-31T21:27:27.927Z,27.00
2018-12-31T21:30:10.343Z,38.10
2018-12-31T21:32:52.911Z,50.63
2018-12-31T21:35:35.011Z,42.50
2018-12-31T21:38:17.117Z,31.40
2018-12-31T21:40:59.262Z,24.50
2018-12-31T21:43:41.921Z,19.53
2018-12-31T21:46:23.795Z,21.00
2018-12-31T21:49:05.569Z,22.70
2018-12-31T21:51:47.626Z,22.93
2018-12-31T21:54:29.902Z,21.03
2018-12-31T21:57:11.962Z,21.80
2018-12-31T21:59:54.026Z,21.80
2018-12-31T22:02:35.643Z,23.17
2018-12-31T22:05:17.470Z,24.80
2018-12-31T22:07:59.621Z,25.57
2018-12-31T22:10:41.446Z,31.57
2018-12-31T22:13:23.771Z,44.53
2018-12-31T22:16:07.319Z,34.63
2018-12-31T22:18:49.030Z,24.13
2018-12-31T22:21:31.222Z,19.40
2018-12-31T22:24:12.810Z,18.27
2018-12-31T22:26:55.019Z,18.30
2018-12-31T22:29:37.270Z,19.67
2018-12-31T22:32:19.542Z,18.47
2018-12-31T22:35:01.600Z,21.97
2018-12-31T22:37:43.809Z,22.10
2018-12-31T22:40:26.260Z,21.63
2018-12-31T22:43:09.499Z,23.83
2018-12-31T22:45:51.466Z,21.73
2018-12-31T22:48:33.556Z,22.37
2018-12-31T22:51:15.543Z,21.90
2018-12-31T22:53:57.366Z,29.20
2018-12-31T22:56:39.283Z,44.43
2018-12-31T22:59:21.234Z,47.53
2018-12-31T23:02:03.390Z,94.07
2018-12-31T23:04:45.275Z,318.50
2018-12-31T23:07:27.354Z,178.63
2018-12-31T23:10:09.569Z,82.57
2018-12-31T23:12:51.930Z,54.33
2018-12-31T23:15:33.497Z,69.40
2018-12-31T23:18:22.914Z,87.23
2018-12-31T23:21:06.796Z,84.00
2018-12-31T23:23:48.533Z,88.30
2018-12-31T23:26:30.531Z,77.27
2018-12-31T23:29:12.578Z,74.23
2018-12-31T23:31:54.516Z,51.67
2018-12-31T23:34:36.450Z,48.77
2018-12-31T23:37:18.369Z,55.53
2018-12-31T23:40:00.009Z,60.70
2018-12-31T23:42:41.936Z,55.80
2018-12-31T23:45:23.754Z,82.03
2018-12-31T23:48:06.594Z,50.17
2018-12-31T23:50:48.914Z,38.03
2018-12-31T23:53:30.842Z,34.53
2018-12-31T23:56:13.266Z,31.80
2018-12-31T23:58:54.976Z,30.60
